sensor_id;sensor_type;location;lat;lon;timestamp;pressure;altitude;pressure_sealevel;temperature
13497;BMP180;6820;49.374;8.452;2022-08-03T00:00:09;100505.41;;;30.71
13497;BMP180;6820;49.374;8.452;2022-08-03T00:04:14;100504.53;;;30.71
13497;BMP180;6820;49.374;8.452;2022-08-03T00:08:17;100505.47;;;30.65
13497;BMP180;6820;49.374;8.452;2022-08-03T00:12:20;100509.00;;;30.63
13497;BMP180;6820;49.374;8.452;2022-08-03T00:16:21;100506.47;;;30.59
13497;BMP180;6820;49.374;8.452;2022-08-03T00:20:25;100505.66;;;30.55
13497;BMP180;6820;49.374;8.452;2022-08-03T00:24:27;100499.63;;;30.50
13497;BMP180;6820;49.374;8.452;2022-08-03T00:28:28;100507.56;;;30.46
13497;BMP180;6820;49.374;8.452;2022-08-03T00:32:30;100500.66;;;30.42
13497;BMP180;6820;49.374;8.452;2022-08-03T00:36:33;100501.59;;;30.38
13497;BMP180;6820;49.374;8.452;2022-08-03T00:40:35;100499.88;;;30.35
13497;BMP180;6820;49.374;8.452;2022-08-03T00:44:41;100492.09;;;30.33
13497;BMP180;6820;49.374;8.452;2022-08-03T00:48:43;100493.03;;;30.29
13497;BMP180;6820;49.374;8.452;2022-08-03T00:52:45;100492.25;;;30.22
13497;BMP180;6820;49.374;8.452;2022-08-03T00:56:47;100500.22;;;30.13
13497;BMP180;6820;49.374;8.452;2022-08-03T01:01:00;100503.00;;;30.04
13497;BMP180;6820;49.374;8.452;2022-08-03T01:05:02;100505.75;;;29.93
13497;BMP180;6820;49.374;8.452;2022-08-03T01:09:32;100491.19;;;29.77
13497;BMP180;6820;49.374;8.452;2022-08-03T01:13:56;100491.28;;;29.71
13497;BMP180;6820;49.374;8.452;2022-08-03T01:31:07;100480.13;;;29.57
13497;BMP180;6820;49.374;8.452;2022-08-03T01:35:14;100472.34;;;29.54
13497;BMP180;6820;49.374;8.452;2022-08-03T01:39:17;100478.47;;;29.52
13497;BMP180;6820;49.374;8.452;2022-08-03T01:43:23;100487.22;;;29.48
13497;BMP180;6820;49.374;8.452;2022-08-03T01:47:45;100482.03;;;29.45
13497;BMP180;6820;49.374;8.452;2022-08-03T01:51:49;100476.00;;;29.41
13497;BMP180;6820;49.374;8.452;2022-08-03T01:56:05;100480.34;;;29.40
13497;BMP180;6820;49.374;8.452;2022-08-03T02:00:07;100481.34;;;29.33
13497;BMP180;6820;49.374;8.452;2022-08-03T02:04:13;100477.91;;;29.28
13497;BMP180;6820;49.374;8.452;2022-08-03T02:08:18;100477.97;;;29.25
13497;BMP180;6820;49.374;8.452;2022-08-03T02:12:21;100475.41;;;29.20
13497;BMP180;6820;49.374;8.452;2022-08-03T02:16:25;100485.06;;;29.14
13497;BMP180;6820;49.374;8.452;2022-08-03T02:20:28;100480.78;;;29.07
13497;BMP180;6820;49.374;8.452;2022-08-03T02:24:33;100479.94;;;29.04
13497;BMP180;6820;49.374;8.452;2022-08-03T02:28:38;100478.22;;;29.01
13497;BMP180;6820;49.374;8.452;2022-08-03T02:32:43;100478.28;;;28.95
13497;BMP180;6820;49.374;8.452;2022-08-03T02:36:49;100480.13;;;28.87
13497;BMP180;6820;49.374;8.452;2022-08-03T02:40:55;100476.72;;;28.78
13497;BMP180;6820;49.374;8.452;2022-08-03T02:45:00;100477.63;;;28.76
13497;BMP180;6820;49.374;8.452;2022-08-03T02:49:04;100478.53;;;28.70
13497;BMP180;6820;49.374;8.452;2022-08-03T02:53:27;100477.75;;;28.64
13497;BMP180;6820;49.374;8.452;2022-08-03T02:57:30;100471.72;;;28.60
13497;BMP180;6820;49.374;8.452;2022-08-03T03:01:34;100468.31;;;28.47
13497;BMP180;6820;49.374;8.452;2022-08-03T03:05:36;100463.22;;;28.33
13497;BMP180;6820;49.374;8.452;2022-08-03T03:09:58;100470.19;;;28.34
13497;BMP180;6820;49.374;8.452;2022-08-03T03:14:01;100466.72;;;28.32
13497;BMP180;6820;49.374;8.452;2022-08-03T03:18:04;100470.22;;;28.31
13497;BMP180;6820;49.374;8.452;2022-08-03T03:22:08;100465.84;;;28.32
13497;BMP180;6820;49.374;8.452;2022-08-03T03:26:12;100465.00;;;28.31
13497;BMP180;6820;49.374;8.452;2022-08-03T03:30:14;100461.53;;;28.31
13497;BMP180;6820;49.374;8.452;2022-08-03T03:34:17;100458.06;;;28.29
13497;BMP180;6820;49.374;8.452;2022-08-03T03:38:19;100470.22;;;28.25
13497;BMP180;6820;49.374;8.452;2022-08-03T03:42:21;100473.75;;;28.20
13497;BMP180;6820;49.374;8.452;2022-08-03T03:46:23;100479.88;;;28.15
13497;BMP180;6820;49.374;8.452;2022-08-03T03:50:25;100473.84;;;28.13
13497;BMP180;6820;49.374;8.452;2022-08-03T03:54:41;100482.50;;;28.16
13497;BMP180;6820;49.374;8.452;2022-08-03T03:58:43;100486.84;;;28.14
13497;BMP180;6820;49.374;8.452;2022-08-03T04:02:45;100480.81;;;28.11
13497;BMP180;6820;49.374;8.452;2022-08-03T04:06:47;100473.84;;;28.11
13497;BMP180;6820;49.374;8.452;2022-08-03T04:11:23;100475.63;;;28.03
13497;BMP180;6820;49.374;8.452;2022-08-03T04:15:32;100483.50;;;27.96
13497;BMP180;6820;49.374;8.452;2022-08-03T04:19:37;100485.28;;;27.91
13497;BMP180;6820;49.374;8.452;2022-08-03T04:23:43;100481.78;;;27.93
13497;BMP180;6820;49.374;8.452;2022-08-03T04:27:47;100480.03;;;27.97
13497;BMP180;6820;49.374;8.452;2022-08-03T04:32:10;100486.97;;;27.98
13497;BMP180;6820;49.374;8.452;2022-08-03T04:36:15;100485.22;;;28.00
13497;BMP180;6820;49.374;8.452;2022-08-03T04:40:20;100489.59;;;27.99
13497;BMP180;6820;49.374;8.452;2022-08-03T04:44:24;100488.69;;;28.00
13497;BMP180;6820;49.374;8.452;2022-08-03T04:48:29;100497.34;;;28.05
13497;BMP180;6820;49.374;8.452;2022-08-03T04:52:30;100493.84;;;28.06
13497;BMP180;6820;49.374;8.452;2022-08-03T04:56:33;100501.69;;;28.08
13497;BMP180;6820;49.374;8.452;2022-08-03T05:00:35;100499.03;;;28.11
13497;BMP180;6820;49.374;8.452;2022-08-03T05:04:36;100504.22;;;28.14
13497;BMP180;6820;49.374;8.452;2022-08-03T05:08:41;100506.81;;;28.18
13497;BMP180;6820;49.374;8.452;2022-08-03T05:12:49;100509.38;;;28.24
13497;BMP180;6820;49.374;8.452;2022-08-03T05:16:52;100506.72;;;28.25
13497;BMP180;6820;49.374;8.452;2022-08-03T05:20:54;100511.09;;;28.22
13497;BMP180;6820;49.374;8.452;2022-08-03T05:24:55;100511.94;;;28.27
13497;BMP180;6820;49.374;8.452;2022-08-03T05:28:57;100513.63;;;28.32
13497;BMP180;6820;49.374;8.452;2022-08-03T05:32:59;100517.06;;;28.39
13497;BMP180;6820;49.374;8.452;2022-08-03T05:37:01;100504.88;;;28.42
13497;BMP180;6820;49.374;8.452;2022-08-03T05:41:03;100515.28;;;28.45
13497;BMP180;6820;49.374;8.452;2022-08-03T05:45:24;100512.66;;;28.44
13497;BMP180;6820;49.374;8.452;2022-08-03T05:49:29;100512.66;;;28.44
13497;BMP180;6820;49.374;8.452;2022-08-03T05:53:33;100513.53;;;28.46
13497;BMP180;6820;49.374;8.452;2022-08-03T05:57:35;100510.84;;;28.59
13497;BMP180;6820;49.374;8.452;2022-08-03T06:01:37;100516.81;;;28.70
13497;BMP180;6820;49.374;8.452;2022-08-03T06:05:38;100520.28;;;28.72
13497;BMP180;6820;49.374;8.452;2022-08-03T06:09:58;100514.88;;;28.86
13497;BMP180;6820;49.374;8.452;2022-08-03T06:14:22;100506.94;;;28.98
13497;BMP180;6820;49.374;8.452;2022-08-03T06:18:24;100517.25;;;29.13
13497;BMP180;6820;49.374;8.452;2022-08-03T06:22:25;100511.03;;;29.23
13497;BMP180;6820;49.374;8.452;2022-08-03T06:26:27;100519.63;;;29.34
13497;BMP180;6820;49.374;8.452;2022-08-03T06:30:29;100512.56;;;29.41
13497;BMP180;6820;49.374;8.452;2022-08-03T06:34:31;100515.03;;;29.50
13497;BMP180;6820;49.374;8.452;2022-08-03T06:38:36;100511.47;;;29.57
13497;BMP180;6820;49.374;8.452;2022-08-03T06:42:37;100510.53;;;29.61
13497;BMP180;6820;49.374;8.452;2022-08-03T06:46:39;100514.84;;;29.70
13497;BMP180;6820;49.374;8.452;2022-08-03T06:50:41;100509.44;;;29.80
13497;BMP180;6820;49.374;8.452;2022-08-03T06:54:44;100504.94;;;29.91
13497;BMP180;6820;49.374;8.452;2022-08-03T06:58:46;100510.03;;;30.00
13497;BMP180;6820;49.374;8.452;2022-08-03T07:02:48;100520.41;;;30.04
13497;BMP180;6820;49.374;8.452;2022-08-03T07:06:52;100521.13;;;30.15
13497;BMP180;6820;49.374;8.452;2022-08-03T07:10:55;100527.03;;;30.27
13497;BMP180;6820;49.374;8.452;2022-08-03T07:14:59;100516.41;;;30.39
13497;BMP180;6820;49.374;8.452;2022-08-03T07:19:03;100509.31;;;30.44
13497;BMP180;6820;49.374;8.452;2022-08-03T07:23:05;100515.28;;;30.53
13497;BMP180;6820;49.374;8.452;2022-08-03T07:27:07;100515.94;;;30.64
13497;BMP180;6820;49.374;8.452;2022-08-03T07:31:09;100523.59;;;30.77
13497;BMP180;6820;49.374;8.452;2022-08-03T07:35:11;100522.50;;;30.90
13497;BMP180;6820;49.374;8.452;2022-08-03T07:39:25;100516.88;;;31.08
13497;BMP180;6820;49.374;8.452;2022-08-03T07:43:27;100516.63;;;31.23
13497;BMP180;6820;49.374;8.452;2022-08-03T07:47:29;100514.59;;;31.36
13497;BMP180;6820;49.374;8.452;2022-08-03T07:51:36;100512.66;;;31.46
13497;BMP180;6820;49.374;8.452;2022-08-03T07:55:38;100509.00;;;31.54
13497;BMP180;6820;49.374;8.452;2022-08-03T07:59:39;100511.41;;;31.63
13497;BMP180;6820;49.374;8.452;2022-08-03T08:04:00;100512.91;;;31.74
13497;BMP180;6820;49.374;8.452;2022-08-03T08:08:03;100510.00;;;31.88
13497;BMP180;6820;49.374;8.452;2022-08-03T08:12:05;100500.88;;;32.03
13497;BMP180;6820;49.374;8.452;2022-08-03T08:16:16;100502.41;;;32.13
13497;BMP180;6820;49.374;8.452;2022-08-03T08:20:29;100498.66;;;32.23
13497;BMP180;6820;49.374;8.452;2022-08-03T08:24:32;100488.81;;;32.34
13497;BMP180;6820;49.374;8.452;2022-08-03T08:28:34;100497.38;;;32.40
13497;BMP180;6820;49.374;8.452;2022-08-03T08:32:36;100496.25;;;32.50
13497;BMP180;6820;49.374;8.452;2022-08-03T08:36:38;100492.53;;;32.58
13497;BMP180;6820;49.374;8.452;2022-08-03T08:40:39;100483.38;;;32.73
13497;BMP180;6820;49.374;8.452;2022-08-03T08:44:41;100487.34;;;32.88
13497;BMP180;6820;49.374;8.452;2022-08-03T08:48:45;100488.88;;;32.97
13497;BMP180;6820;49.374;8.452;2022-08-03T08:52:48;100485.09;;;33.07
13497;BMP180;6820;49.374;8.452;2022-08-03T08:56:51;100484.63;;;33.23
13497;BMP180;6820;49.374;8.452;2022-08-03T09:00:53;100467.72;;;33.33
13497;BMP180;6820;49.374;8.452;2022-08-03T09:04:56;100476.97;;;33.45
13497;BMP180;6820;49.374;8.452;2022-08-03T09:08:58;100475.66;;;33.60
13497;BMP180;6820;49.374;8.452;2022-08-03T09:13:00;100473.56;;;33.71
13497;BMP180;6820;49.374;8.452;2022-08-03T09:17:03;100467.19;;;33.79
13497;BMP180;6820;49.374;8.452;2022-08-03T09:21:16;100467.69;;;33.90
13497;BMP180;6820;49.374;8.452;2022-08-03T09:25:42;100455.06;;;34.01
13497;BMP180;6820;49.374;8.452;2022-08-03T09:29:47;100460.81;;;34.13
13497;BMP180;6820;49.374;8.452;2022-08-03T09:33:49;100462.16;;;34.26
13497;BMP180;6820;49.374;8.452;2022-08-03T09:38:08;100459.97;;;34.38
13497;BMP180;6820;49.374;8.452;2022-08-03T09:42:16;100461.34;;;34.49
13497;BMP180;6820;49.374;8.452;2022-08-03T09:46:18;100460.06;;;34.61
13497;BMP180;6820;49.374;8.452;2022-08-03T09:50:20;100449.94;;;34.74
13497;BMP180;6820;49.374;8.452;2022-08-03T09:54:30;100444.22;;;34.86
13497;BMP180;6820;49.374;8.452;2022-08-03T09:58:32;100446.31;;;35.01
13497;BMP180;6820;49.374;8.452;2022-08-03T10:02:33;100439.72;;;35.14
13497;BMP180;6820;49.374;8.452;2022-08-03T10:06:35;100437.53;;;35.25
13497;BMP180;6820;49.374;8.452;2022-08-03T10:10:48;100442.41;;;35.35
13497;BMP180;6820;49.374;8.452;2022-08-03T10:14:51;100434.94;;;35.46
13497;BMP180;6820;49.374;8.452;2022-08-03T10:18:53;100435.25;;;35.60
13497;BMP180;6820;49.374;8.452;2022-08-03T10:22:57;100421.47;;;35.74
13497;BMP180;6820;49.374;8.452;2022-08-03T10:27:05;100420.06;;;35.87
13497;BMP180;6820;49.374;8.452;2022-08-03T10:31:09;100425.06;;;35.94
13497;BMP180;6820;49.374;8.452;2022-08-03T10:35:13;100411.69;;;35.99
13497;BMP180;6820;49.374;8.452;2022-08-03T10:39:23;100403.34;;;36.09
13497;BMP180;6820;49.374;8.452;2022-08-03T10:44:20;100396.75;;;36.19
13497;BMP180;6820;49.374;8.452;2022-08-03T10:48:15;100401.44;;;36.32
13497;BMP180;6820;49.374;8.452;2022-08-03T10:52:17;100385.88;;;36.46
13497;BMP180;6820;49.374;8.452;2022-08-03T11:00:55;100371.34;;;36.76
13497;BMP180;6820;49.374;8.452;2022-08-03T11:05:29;100385.56;;;36.91
13497;BMP180;6820;49.374;8.452;2022-08-03T11:09:40;100377.34;;;36.99
13497;BMP180;6820;49.374;8.452;2022-08-03T11:14:17;100367.56;;;37.01
13497;BMP180;6820;49.374;8.452;2022-08-03T11:18:19;100361.00;;;37.09
13497;BMP180;6820;49.374;8.452;2022-08-03T11:22:47;100352.47;;;37.21
13497;BMP180;6820;49.374;8.452;2022-08-03T11:27:25;100350.19;;;37.32
13497;BMP180;6820;49.374;8.452;2022-08-03T11:36:00;100337.38;;;37.43
13497;BMP180;6820;49.374;8.452;2022-08-03T11:40:03;100334.25;;;37.51
13497;BMP180;6820;49.374;8.452;2022-08-03T11:44:04;100347.97;;;37.59
13497;BMP180;6820;49.374;8.452;2022-08-03T11:48:15;100337.09;;;37.65
13497;BMP180;6820;49.374;8.452;2022-08-03T11:52:17;100331.63;;;37.68
13497;BMP180;6820;49.374;8.452;2022-08-03T11:56:29;100327.63;;;37.78
13497;BMP180;6820;49.374;8.452;2022-08-03T12:00:43;100324.53;;;37.87
13497;BMP180;6820;49.374;8.452;2022-08-03T12:08:50;100324.41;;;38.07
13497;BMP180;6820;49.374;8.452;2022-08-03T12:12:56;100319.41;;;38.17
13497;BMP180;6820;49.374;8.452;2022-08-03T12:16:58;100314.44;;;38.28
13497;BMP180;6820;49.374;8.452;2022-08-03T12:21:18;100307.72;;;38.38
13497;BMP180;6820;49.374;8.452;2022-08-03T12:25:25;100301.84;;;38.48
13497;BMP180;6820;49.374;8.452;2022-08-03T12:29:40;100302.91;;;38.61
13497;BMP180;6820;49.374;8.452;2022-08-03T12:34:04;100304.06;;;38.73
13497;BMP180;6820;49.374;8.452;2022-08-03T12:38:10;100303.59;;;38.81
13497;BMP180;6820;49.374;8.452;2022-08-03T12:42:12;100295.97;;;38.91
13497;BMP180;6820;49.374;8.452;2022-08-03T12:46:18;100286.66;;;38.99
13497;BMP180;6820;49.374;8.452;2022-08-03T12:50:31;100288.50;;;39.14
13497;BMP180;6820;49.374;8.452;2022-08-03T12:54:33;100295.75;;;39.26
13497;BMP180;6820;49.374;8.452;2022-08-03T12:58:36;100290.03;;;39.33
13497;BMP180;6820;49.374;8.452;2022-08-03T13:02:38;100281.47;;;39.43
13497;BMP180;6820;49.374;8.452;2022-08-03T13:06:56;100283.34;;;39.57
13497;BMP180;6820;49.374;8.452;2022-08-03T13:11:23;100273.44;;;39.74
13497;BMP180;6820;49.374;8.452;2022-08-03T13:15:45;100265.94;;;39.96
13497;BMP180;6820;49.374;8.452;2022-08-03T13:19:49;100259.53;;;40.13
13497;BMP180;6820;49.374;8.452;2022-08-03T13:23:50;100254.25;;;40.27
13497;BMP180;6820;49.374;8.452;2022-08-03T13:27:52;100256.56;;;40.47
13497;BMP180;6820;49.374;8.452;2022-08-03T13:32:05;100257.78;;;40.69
13497;BMP180;6820;49.374;8.452;2022-08-03T13:36:07;100250.38;;;40.88
13497;BMP180;6820;49.374;8.452;2022-08-03T13:40:09;100241.72;;;40.98
13497;BMP180;6820;49.374;8.452;2022-08-03T13:44:12;100242.66;;;41.11
13497;BMP180;6820;49.374;8.452;2022-08-03T13:48:30;100238.69;;;41.30
13497;BMP180;6820;49.374;8.452;2022-08-03T13:52:38;100232.91;;;41.50
13497;BMP180;6820;49.374;8.452;2022-08-03T13:56:39;100225.91;;;41.61
13497;BMP180;6820;49.374;8.452;2022-08-03T14:00:41;100222.44;;;41.73
13497;BMP180;6820;49.374;8.452;2022-08-03T14:04:42;100224.94;;;41.88
13497;BMP180;6820;49.374;8.452;2022-08-03T14:08:44;100223.47;;;42.09
13497;BMP180;6820;49.374;8.452;2022-08-03T14:12:46;100203.84;;;42.22
13497;BMP180;6820;49.374;8.452;2022-08-03T14:16:47;100212.50;;;42.38
13497;BMP180;6820;49.374;8.452;2022-08-03T14:20:49;100202.59;;;42.40
13497;BMP180;6820;49.374;8.452;2022-08-03T14:24:56;100202.06;;;42.47
13497;BMP180;6820;49.374;8.452;2022-08-03T14:28:58;100200.00;;;42.63
13497;BMP180;6820;49.374;8.452;2022-08-03T14:33:00;100189.31;;;42.75
13497;BMP180;6820;49.374;8.452;2022-08-03T14:37:02;100185.09;;;42.83
13497;BMP180;6820;49.374;8.452;2022-08-03T14:41:04;100183.72;;;42.90
13497;BMP180;6820;49.374;8.452;2022-08-03T14:45:05;100191.88;;;43.00
13497;BMP180;6820;49.374;8.452;2022-08-03T14:49:20;100184.94;;;43.10
13497;BMP180;6820;49.374;8.452;2022-08-03T14:53:41;100191.41;;;43.18
13497;BMP180;6820;49.374;8.452;2022-08-03T14:57:43;100190.00;;;43.25
13497;BMP180;6820;49.374;8.452;2022-08-03T15:01:45;100175.59;;;43.38
13497;BMP180;6820;49.374;8.452;2022-08-03T15:06:06;100170.66;;;43.44
13497;BMP180;6820;49.374;8.452;2022-08-03T15:10:08;100168.78;;;43.57
13497;BMP180;6820;49.374;8.452;2022-08-03T15:14:09;100158.47;;;43.64
13497;BMP180;6820;49.374;8.452;2022-08-03T15:18:15;100158.00;;;43.70
13497;BMP180;6820;49.374;8.452;2022-08-03T15:22:16;100142.25;;;43.77
13497;BMP180;6820;49.374;8.452;2022-08-03T15:26:25;100139.00;;;43.96
13497;BMP180;6820;49.374;8.452;2022-08-03T15:30:34;100138.28;;;44.05
13497;BMP180;6820;49.374;8.452;2022-08-03T15:34:37;100125.19;;;44.02
13497;BMP180;6820;49.374;8.452;2022-08-03T15:38:39;100126.38;;;44.08
13497;BMP180;6820;49.374;8.452;2022-08-03T15:42:41;100119.84;;;44.23
13497;BMP180;6820;49.374;8.452;2022-08-03T15:46:42;100123.84;;;44.29
13497;BMP180;6820;49.374;8.452;2022-08-03T15:50:44;100117.50;;;44.40
13497;BMP180;6820;49.374;8.452;2022-08-03T15:54:45;100119.72;;;44.57
13497;BMP180;6820;49.374;8.452;2022-08-03T15:58:47;100116.78;;;44.60
13497;BMP180;6820;49.374;8.452;2022-08-03T16:03:09;100112.88;;;44.64
13497;BMP180;6820;49.374;8.452;2022-08-03T16:07:11;100107.53;;;44.64
13497;BMP180;6820;49.374;8.452;2022-08-03T16:11:14;100101.69;;;44.59
13497;BMP180;6820;49.374;8.452;2022-08-03T16:15:16;100102.06;;;44.66
13497;BMP180;6820;49.374;8.452;2022-08-03T16:19:18;100102.66;;;44.69
13497;BMP180;6820;49.374;8.452;2022-08-03T16:23:19;100102.66;;;44.69
13497;BMP180;6820;49.374;8.452;2022-08-03T16:27:22;100103.38;;;44.71
13497;BMP180;6820;49.374;8.452;2022-08-03T16:31:44;100102.03;;;44.76
13497;BMP180;6820;49.374;8.452;2022-08-03T16:35:51;100091.22;;;44.67
13497;BMP180;6820;49.374;8.452;2022-08-03T16:39:53;100092.94;;;44.68
13497;BMP180;6820;49.374;8.452;2022-08-03T16:43:55;100095.38;;;44.71
13497;BMP180;6820;49.374;8.452;2022-08-03T16:47:57;100088.28;;;44.70
13497;BMP180;6820;49.374;8.452;2022-08-03T16:52:06;100092.69;;;44.71
13497;BMP180;6820;49.374;8.452;2022-08-03T16:56:07;100086.72;;;44.67
13497;BMP180;6820;49.374;8.452;2022-08-03T17:00:12;100089.31;;;44.58
13497;BMP180;6820;49.374;8.452;2022-08-03T17:04:34;100088.56;;;44.45
13497;BMP180;6820;49.374;8.452;2022-08-03T17:08:40;100080.34;;;44.27
13497;BMP180;6820;49.374;8.452;2022-08-03T17:12:55;100092.22;;;44.01
13497;BMP180;6820;49.374;8.452;2022-08-03T17:16:58;100081.69;;;43.89
13497;BMP180;6820;49.374;8.452;2022-08-03T17:21:03;100083.72;;;43.74
13497;BMP180;6820;49.374;8.452;2022-08-03T17:25:08;100085.16;;;43.57
13497;BMP180;6820;49.374;8.452;2022-08-03T17:29:24;100088.09;;;43.31
13497;BMP180;6820;49.374;8.452;2022-08-03T17:33:30;100087.72;;;43.01
13497;BMP180;6820;49.374;8.452;2022-08-03T17:37:36;100088.44;;;42.69
13497;BMP180;6820;49.374;8.452;2022-08-03T17:41:58;100093.78;;;42.34
13497;BMP180;6820;49.374;8.452;2022-08-03T17:46:04;100099.00;;;41.98
13497;BMP180;6820;49.374;8.452;2022-08-03T17:50:07;100093.47;;;41.64
13497;BMP180;6820;49.374;8.452;2022-08-03T18:07:15;100110.38;;;40.61
13497;BMP180;6820;49.374;8.452;2022-08-03T18:11:22;100113.09;;;40.47
13497;BMP180;6820;49.374;8.452;2022-08-03T18:15:42;100105.41;;;40.29
13497;BMP180;6820;49.374;8.452;2022-08-03T18:19:46;100110.72;;;40.15
13497;BMP180;6820;49.374;8.452;2022-08-03T18:24:10;100102.88;;;39.99
13497;BMP180;6820;49.374;8.452;2022-08-03T18:28:13;100110.81;;;39.86
13497;BMP180;6820;49.374;8.452;2022-08-03T18:32:16;100108.03;;;39.73
13497;BMP180;6820;49.374;8.452;2022-08-03T18:36:19;100104.53;;;39.59
13497;BMP180;6820;49.374;8.452;2022-08-03T18:40:30;100107.97;;;39.46
13497;BMP180;6820;49.374;8.452;2022-08-03T18:44:33;100110.59;;;39.32
13497;BMP180;6820;49.374;8.452;2022-08-03T18:49:02;100102.59;;;39.18
13497;BMP180;6820;49.374;8.452;2022-08-03T18:53:16;100104.31;;;39.04
13497;BMP180;6820;49.374;8.452;2022-08-03T18:57:56;100117.53;;;38.90
13497;BMP180;6820;49.374;8.452;2022-08-03T19:02:04;100118.22;;;38.78
13497;BMP180;6820;49.374;8.452;2022-08-03T19:06:17;100124.25;;;38.65
13497;BMP180;6820;49.374;8.452;2022-08-03T19:10:24;100119.78;;;38.52
13497;BMP180;6820;49.374;8.452;2022-08-03T19:14:37;100123.09;;;38.40
13497;BMP180;6820;49.374;8.452;2022-08-03T19:18:46;100134.44;;;38.27
13497;BMP180;6820;49.374;8.452;2022-08-03T19:22:49;100130.97;;;38.10
13497;BMP180;6820;49.374;8.452;2022-08-03T19:26:52;100147.50;;;37.98
13497;BMP180;6820;49.374;8.452;2022-08-03T19:30:59;100155.16;;;37.87
13497;BMP180;6820;49.374;8.452;2022-08-03T19:35:07;100147.75;;;37.77
13497;BMP180;6820;49.374;8.452;2022-08-03T19:39:19;100147.38;;;37.67
13497;BMP180;6820;49.374;8.452;2022-08-03T19:43:36;100153.13;;;37.58
13497;BMP180;6820;49.374;8.452;2022-08-03T19:47:57;100150.19;;;37.48
13497;BMP180;6820;49.374;8.452;2022-08-03T19:52:10;100140.88;;;37.41
13497;BMP180;6820;49.374;8.452;2022-08-03T19:56:13;100148.31;;;37.33
13497;BMP180;6820;49.374;8.452;2022-08-03T20:00:16;100156.56;;;37.27
13497;BMP180;6820;49.374;8.452;2022-08-03T20:04:26;100155.97;;;37.20
13497;BMP180;6820;49.374;8.452;2022-08-03T20:08:28;100155.50;;;37.13
13497;BMP180;6820;49.374;8.452;2022-08-03T20:12:31;100154.50;;;36.98
13497;BMP180;6820;49.374;8.452;2022-08-03T20:16:39;100154.91;;;36.89
13497;BMP180;6820;49.374;8.452;2022-08-03T20:20:44;100154.69;;;36.76
13497;BMP180;6820;49.374;8.452;2022-08-03T20:24:49;100163.94;;;36.67
13497;BMP180;6820;49.374;8.452;2022-08-03T20:28:56;100153.81;;;36.58
13497;BMP180;6820;49.374;8.452;2022-08-03T20:33:10;100160.22;;;36.53
13497;BMP180;6820;49.374;8.452;2022-08-03T20:37:11;100152.63;;;36.46
13497;BMP180;6820;49.374;8.452;2022-08-03T20:41:17;100148.59;;;36.39
13497;BMP180;6820;49.374;8.452;2022-08-03T20:45:19;100152.47;;;36.30
13497;BMP180;6820;49.374;8.452;2022-08-03T20:49:42;100156.50;;;36.21
13497;BMP180;6820;49.374;8.452;2022-08-03T20:53:46;100153.34;;;36.13
13497;BMP180;6820;49.374;8.452;2022-08-03T20:58:00;100148.34;;;36.07
13497;BMP180;6820;49.374;8.452;2022-08-03T21:02:03;100136.25;;;36.01
13497;BMP180;6820;49.374;8.452;2022-08-03T21:06:06;100143.44;;;35.98
13497;BMP180;6820;49.374;8.452;2022-08-03T21:10:13;100138.28;;;35.95
13497;BMP180;6820;49.374;8.452;2022-08-03T21:14:48;100136.09;;;35.86
13497;BMP180;6820;49.374;8.452;2022-08-03T21:18:53;100147.81;;;35.79
13497;BMP180;6820;49.374;8.452;2022-08-03T21:22:57;100142.81;;;35.73
13497;BMP180;6820;49.374;8.452;2022-08-03T21:26:59;100136.09;;;35.66
13497;BMP180;6820;49.374;8.452;2022-08-03T21:31:02;100133.91;;;35.56
13497;BMP180;6820;49.374;8.452;2022-08-03T21:35:06;100138.56;;;35.50
13497;BMP180;6820;49.374;8.452;2022-08-03T21:39:09;100128.44;;;35.41
13497;BMP180;6820;49.374;8.452;2022-08-03T21:43:11;100139.03;;;35.20
13497;BMP180;6820;49.374;8.452;2022-08-03T21:47:13;100150.84;;;35.10
13497;BMP180;6820;49.374;8.452;2022-08-03T21:51:16;100143.31;;;35.01
13497;BMP180;6820;49.374;8.452;2022-08-03T21:55:21;100150.69;;;34.93
13497;BMP180;6820;49.374;8.452;2022-08-03T21:59:25;100153.34;;;34.92
13497;BMP180;6820;49.374;8.452;2022-08-03T22:03:28;100149.00;;;34.91
13497;BMP180;6820;49.374;8.452;2022-08-03T22:07:30;100144.72;;;34.88
13497;BMP180;6820;49.374;8.452;2022-08-03T22:11:33;100156.13;;;34.89
13497;BMP180;6820;49.374;8.452;2022-08-03T22:15:35;100154.66;;;34.82
13497;BMP180;6820;49.374;8.452;2022-08-03T22:19:36;100160.78;;;34.82
13497;BMP180;6820;49.374;8.452;2022-08-03T22:23:44;100156.38;;;34.83
13497;BMP180;6820;49.374;8.452;2022-08-03T22:27:46;100162.56;;;34.82
13497;BMP180;6820;49.374;8.452;2022-08-03T22:31:48;100153.88;;;34.80
13497;BMP180;6820;49.374;8.452;2022-08-03T22:36:02;100160.09;;;34.77
13497;BMP180;6820;49.374;8.452;2022-08-03T22:40:11;100155.94;;;34.72
13497;BMP180;6820;49.374;8.452;2022-08-03T22:44:13;100152.59;;;34.67
13497;BMP180;6820;49.374;8.452;2022-08-03T22:48:15;100154.38;;;34.68
13497;BMP180;6820;49.374;8.452;2022-08-03T22:52:18;100156.28;;;34.63
13497;BMP180;6820;49.374;8.452;2022-08-03T22:56:20;100166.94;;;34.60
13497;BMP180;6820;49.374;8.452;2022-08-03T23:00:23;100162.78;;;34.55
13497;BMP180;6820;49.374;8.452;2022-08-03T23:04:25;100168.19;;;34.50
13497;BMP180;6820;49.374;8.452;2022-08-03T23:08:30;100170.03;;;34.48
13497;BMP180;6820;49.374;8.452;2022-08-03T23:12:37;100162.19;;;34.47
13497;BMP180;6820;49.374;8.452;2022-08-03T23:16:41;100161.31;;;34.46
13497;BMP180;6820;49.374;8.452;2022-08-03T23:20:43;100164.88;;;34.45
13497;BMP180;6820;49.374;8.452;2022-08-03T23:24:46;100173.75;;;34.43
13497;BMP180;6820;49.374;8.452;2022-08-03T23:28:48;100169.66;;;34.36
13497;BMP180;6820;49.374;8.452;2022-08-03T23:32:50;100176.28;;;34.23
13497;BMP180;6820;49.374;8.452;2022-08-03T23:36:55;100169.16;;;34.03
13497;BMP180;6820;49.374;8.452;2022-08-03T23:40:58;100171.47;;;33.87
13497;BMP180;6820;49.374;8.452;2022-08-03T23:45:00;100172.53;;;33.82
13497;BMP180;6820;49.374;8.452;2022-08-03T23:49:06;100182.31;;;33.78
13497;BMP180;6820;49.374;8.452;2022-08-03T23:53:11;100168.56;;;33.72
13497;BMP180;6820;49.374;8.452;2022-08-03T23:57:48;100165.97;;;33.69
